Time;durP1;ratioP1;P1;durP2;ratioP2;P2;SDS_P1;SDS_P2;PMS_P1;PMS_P2;Temp;Humidity;BMP_temperature;BMP_pressure;BME280_temperature;BME280_humidity;BME280_pressure;Samples;Min_cycle;Max_cycle;Signal;HPM_P1;HPM_P2
2024/04/05 00:02:09;;;;;;;0.10;0.10;;;19.70;51.10;;;;;;5073581;28;20195;-47
2024/04/05 00:04:40;;;;;;;0.10;0.10;;;19.70;51.10;;;;;;5091613;28;20361;-47
2024/04/05 00:07:10;;;;;;;0.10;0.10;;;19.70;51.10;;;;;;5069809;28;20894;-47
2024/04/05 00:09:41;;;;;;;0.10;0.10;;;19.80;51.30;;;;;;5067993;28;20544;-47
2024/04/05 00:12:10;;;;;;;0.08;0.08;;;19.80;51.30;;;;;;5067640;28;20195;-45
2024/04/05 00:14:40;;;;;;;0.10;0.10;;;19.80;51.20;;;;;;5067980;28;20730;-47
2024/04/05 00:17:11;;;;;;;0.10;0.10;;;19.80;51.20;;;;;;5067952;28;20280;-49
2024/04/05 00:19:43;;;;;;;0.10;0.10;;;19.80;51.20;;;;;;5067175;28;20657;-47
2024/04/05 00:22:12;;;;;;;0.05;0.05;;;19.80;51.20;;;;;;5068308;28;20252;-46
2024/04/05 00:24:43;;;;;;;0.10;0.10;;;19.80;51.10;;;;;;5068157;28;20249;-46
2024/04/05 00:27:12;;;;;;;0.10;0.10;;;19.90;51.20;;;;;;5057937;28;20207;-47
2024/04/05 00:29:43;;;;;;;0.00;0.00;;;19.90;51.10;;;;;;5054384;28;20700;-46
2024/04/05 00:32:14;;;;;;;0.03;0.03;;;19.90;51.10;;;;;;5070948;28;20579;-50
2024/04/05 00:34:44;;;;;;;0.10;0.10;;;19.90;51.10;;;;;;5074320;28;20248;-47
2024/04/05 00:37:14;;;;;;;0.00;0.00;;;19.90;51.00;;;;;;5067599;28;20222;-46
2024/04/05 00:39:45;;;;;;;0.10;0.10;;;19.90;51.00;;;;;;5068001;28;20678;-46
2024/04/05 00:42:14;;;;;;;0.00;0.00;;;19.90;51.00;;;;;;5067345;28;20211;-47
2024/04/05 00:44:44;;;;;;;0.10;0.10;;;20.00;51.10;;;;;;5067628;28;20214;-48
2024/04/05 00:47:16;;;;;;;0.10;0.10;;;20.00;51.00;;;;;;5070323;28;20226;-48
2024/04/05 00:49:47;;;;;;;0.10;0.10;;;20.00;51.00;;;;;;5071673;28;20198;-47
2024/04/05 00:52:16;;;;;;;0.00;0.00;;;20.00;51.00;;;;;;5071567;28;20658;-47
2024/04/05 00:54:47;;;;;;;0.08;0.08;;;20.00;50.90;;;;;;5071490;28;20226;-49
2024/04/05 00:57:16;;;;;;;0.08;0.08;;;20.00;50.90;;;;;;5071692;28;20244;-47
2024/04/05 00:59:47;;;;;;;0.10;0.10;;;20.10;51.50;;;;;;5070766;28;20685;-47
2024/04/05 01:02:19;;;;;;;0.00;0.00;;;20.10;50.90;;;;;;5074610;28;20266;-48
2024/04/05 01:04:49;;;;;;;0.10;0.10;;;20.10;50.90;;;;;;5090585;28;20687;-48
2024/04/05 01:07:19;;;;;;;0.05;0.05;;;20.10;50.80;;;;;;5085478;28;20803;-47
2024/04/05 01:09:50;;;;;;;0.03;0.03;;;20.10;50.80;;;;;;5070347;28;20278;-47
2024/04/05 01:12:19;;;;;;;0.00;0.00;;;20.10;50.80;;;;;;5070505;28;20643;-49
2024/04/05 01:14:49;;;;;;;0.00;0.00;;;20.10;50.80;;;;;;5070852;28;20222;-49
2024/04/05 01:17:20;;;;;;;0.10;0.10;;;20.10;51.10;;;;;;5070449;28;20306;-47
2024/04/05 01:19:54;;;;;;;0.05;0.05;;;20.10;51.50;;;;;;5071700;28;20195;-48
2024/04/05 01:22:28;;;;;;;0.00;0.00;;;20.10;51.50;;;;;;5070678;28;20198;-49
2024/04/05 01:25:00;;;;;;;0.00;0.00;;;20.10;51.50;;;;;;5070981;28;20202;-48
2024/04/05 01:27:30;;;;;;;0.00;0.00;;;20.20;51.40;;;;;;5070178;28;20682;-47
2024/04/05 01:30:00;;;;;;;0.00;0.00;;;20.20;51.30;;;;;;5076832;28;20654;-50
2024/04/05 01:32:29;;;;;;;0.00;0.00;;;20.20;51.30;;;;;;5090108;28;20653;-46
2024/04/05 01:35:00;;;;;;;0.00;0.00;;;20.20;51.20;;;;;;5090869;28;20229;-47
2024/04/05 01:37:29;;;;;;;0.00;0.00;;;20.20;51.20;;;;;;5090083;28;20592;-46
2024/04/05 01:40:02;;;;;;;0.00;0.00;;;20.20;51.10;;;;;;5064303;28;20228;-47
2024/04/05 01:42:31;;;;;;;0.03;0.03;;;20.30;51.10;;;;;;5049933;28;20286;-47
2024/04/05 01:45:01;;;;;;;0.00;0.00;;;20.30;51.10;;;;;;5068902;28;20199;-47
2024/04/05 01:47:32;;;;;;;0.00;0.00;;;20.30;51.00;;;;;;5070441;28;20222;-54
2024/04/05 01:50:03;;;;;;;0.03;0.03;;;20.20;51.00;;;;;;5069898;28;20868;-49
2024/04/05 01:52:32;;;;;;;0.00;0.00;;;20.30;51.00;;;;;;5070062;28;20200;-48
2024/04/05 01:55:05;;;;;;;0.00;0.00;;;20.30;51.00;;;;;;5069094;28;20230;-48
2024/04/05 01:57:37;;;;;;;0.10;0.10;;;20.30;51.00;;;;;;5069158;28;20625;-46
2024/04/05 02:00:09;;;;;;;0.00;0.00;;;20.30;51.00;;;;;;5070440;28;20202;-48
2024/04/05 02:02:38;;;;;;;0.00;0.00;;;20.30;51.00;;;;;;5062162;28;20711;-47
2024/04/05 02:05:09;;;;;;;0.00;0.00;;;20.30;51.00;;;;;;5090728;28;20202;-46
2024/04/05 02:07:39;;;;;;;0.10;0.10;;;20.30;51.00;;;;;;5087448;28;20213;-45
2024/04/05 02:10:12;;;;;;;0.10;0.10;;;20.30;51.00;;;;;;5050195;28;20211;-46
2024/04/05 02:12:41;;;;;;;0.10;0.10;;;20.30;51.00;;;;;;5050207;28;20234;-45
2024/04/05 02:15:11;;;;;;;0.08;0.08;;;20.20;51.00;;;;;;5050012;28;20223;-46
2024/04/05 02:17:40;;;;;;;0.05;0.05;;;20.20;51.10;;;;;;5054129;28;20662;-47
2024/04/05 02:20:12;;;;;;;0.10;0.10;;;20.20;51.00;;;;;;5069677;28;20199;-46
2024/04/05 02:22:41;;;;;;;0.00;0.00;;;20.20;51.00;;;;;;5069239;28;20662;-48
2024/04/05 02:25:13;;;;;;;0.03;0.03;;;20.20;51.00;;;;;;5069353;28;20199;-46
2024/04/05 02:27:42;;;;;;;0.00;0.00;;;20.20;51.00;;;;;;5068741;28;20222;-46
2024/04/05 02:30:13;;;;;;;0.10;0.10;;;20.20;51.00;;;;;;5069456;28;20602;-50
2024/04/05 02:32:42;;;;;;;0.10;0.10;;;20.20;51.10;;;;;;5060171;28;20209;-47
2024/04/05 02:35:13;;;;;;;0.00;0.00;;;20.20;51.10;;;;;;5069120;28;20226;-48
2024/04/05 02:37:43;;;;;;;0.00;0.00;;;20.20;51.10;;;;;;5070059;28;20312;-45
2024/04/05 02:40:15;;;;;;;0.05;0.05;;;20.20;51.10;;;;;;5069435;28;20207;-46
2024/04/05 02:42:44;;;;;;;0.10;0.10;;;20.20;51.20;;;;;;5069537;28;20670;-46
2024/04/05 02:45:15;;;;;;;0.00;0.00;;;20.20;51.20;;;;;;5069337;28;20286;-47
2024/04/05 02:47:44;;;;;;;0.05;0.05;;;20.20;51.20;;;;;;5069520;28;20222;-47
2024/04/05 02:50:15;;;;;;;0.00;0.00;;;20.20;51.20;;;;;;5069501;28;20284;-47
2024/04/05 02:52:44;;;;;;;0.00;0.00;;;20.20;51.20;;;;;;5068578;28;20202;-45
2024/04/05 02:55:17;;;;;;;0.05;0.05;;;20.20;51.30;;;;;;5069158;28;20690;-49
2024/04/05 02:57:46;;;;;;;0.00;0.00;;;20.20;51.30;;;;;;5068842;28;20219;-47
2024/04/05 03:00:17;;;;;;;0.10;0.10;;;20.20;51.30;;;;;;5068891;28;20199;-45
2024/04/05 03:02:46;;;;;;;0.00;0.00;;;20.20;51.30;;;;;;5075885;28;20206;-46
2024/04/05 03:05:17;;;;;;;0.00;0.00;;;20.20;51.30;;;;;;5088561;28;20670;-47
2024/04/05 03:07:47;;;;;;;0.10;0.10;;;20.20;51.40;;;;;;5068583;28;20276;-45
2024/04/05 03:10:20;;;;;;;0.10;0.10;;;20.20;51.20;;;;;;5067509;28;20203;-47
2024/04/05 03:12:51;;;;;;;0.00;0.00;;;20.20;51.20;;;;;;5068599;28;20244;-48
2024/04/05 03:15:22;;;;;;;0.00;0.00;;;20.20;51.30;;;;;;5067705;28;20250;-45
2024/04/05 03:17:51;;;;;;;0.10;0.10;;;20.20;51.20;;;;;;5067327;28;20230;-48
2024/04/05 03:20:22;;;;;;;0.03;0.03;;;20.20;51.20;;;;;;5067861;28;20201;-48
2024/04/05 03:22:51;;;;;;;0.00;0.00;;;20.20;51.20;;;;;;5068278;28;20267;-48
2024/04/05 03:25:24;;;;;;;0.10;0.10;;;20.20;51.20;;;;;;5069823;28;20205;-47
2024/04/05 03:27:53;;;;;;;0.10;0.10;;;20.20;51.10;;;;;;5072099;28;20219;-46
2024/04/05 03:30:24;;;;;;;0.08;0.08;;;20.20;51.10;;;;;;5072195;28;20210;-48
2024/04/05 03:32:53;;;;;;;0.00;0.00;;;20.20;51.00;;;;;;5080065;28;20205;-48
2024/04/05 03:35:23;;;;;;;0.03;0.03;;;20.10;51.00;;;;;;5091986;28;20230;-49
2024/04/05 03:37:56;;;;;;;0.00;0.00;;;20.20;51.10;;;;;;5091970;28;20214;-50
2024/04/05 03:40:29;;;;;;;0.10;0.10;;;20.20;51.00;;;;;;5092187;28;20198;-47
2024/04/05 03:42:58;;;;;;;0.10;0.10;;;20.20;51.00;;;;;;5071504;28;20194;-47
2024/04/05 03:45:28;;;;;;;0.10;0.10;;;20.20;51.00;;;;;;5066610;28;20573;-47
2024/04/05 03:47:57;;;;;;;0.00;0.00;;;20.20;51.00;;;;;;5067934;28;20210;-49
2024/04/05 03:50:28;;;;;;;0.00;0.00;;;20.20;50.90;;;;;;5068530;28;20210;-46
2024/04/05 03:52:57;;;;;;;0.00;0.00;;;20.20;50.90;;;;;;5067671;28;20529;-47
2024/04/05 03:55:30;;;;;;;0.10;0.10;;;20.10;50.90;;;;;;5067839;28;20619;-46
2024/04/05 03:57:59;;;;;;;0.00;0.00;;;20.10;50.80;;;;;;5068211;28;20340;-47
2024/04/05 04:00:30;;;;;;;0.00;0.00;;;20.10;50.80;;;;;;5067331;28;20237;-47
2024/04/05 04:02:59;;;;;;;0.00;0.00;;;20.10;50.80;;;;;;5072586;28;20221;-45
2024/04/05 04:05:29;;;;;;;0.10;0.10;;;20.10;50.80;;;;;;5067490;28;20296;-45
2024/04/05 04:08:00;;;;;;;0.10;0.10;;;20.10;50.80;;;;;;5067279;28;20229;-46
2024/04/05 04:10:32;;;;;;;0.00;0.00;;;20.10;50.80;;;;;;5067662;28;20199;-46
2024/04/05 04:13:02;;;;;;;0.00;0.00;;;20.10;50.80;;;;;;5067078;28;20199;-47
2024/04/05 04:15:34;;;;;;;0.08;0.08;;;20.10;50.80;;;;;;5067951;28;20872;-47
2024/04/05 04:18:03;;;;;;;0.00;0.00;;;20.10;50.80;;;;;;5068146;28;20218;-48
2024/04/05 04:20:34;;;;;;;0.03;0.03;;;20.10;50.80;;;;;;5068017;28;20199;-46
2024/04/05 04:23:03;;;;;;;0.10;0.10;;;20.10;50.80;;;;;;5067453;28;20202;-52
2024/04/05 04:25:35;;;;;;;0.00;0.00;;;20.10;50.90;;;;;;5067279;28;20191;-47
2024/04/05 04:28:05;;;;;;;0.00;0.00;;;20.10;51.00;;;;;;5066668;28;20211;-48
2024/04/05 04:30:35;;;;;;;0.10;0.10;;;20.10;50.70;;;;;;5067473;28;20198;-46
2024/04/05 04:33:05;;;;;;;0.00;0.00;;;20.10;50.50;;;;;;5066781;28;20658;-46
2024/04/05 04:35:36;;;;;;;0.08;0.08;;;20.10;50.40;;;;;;5064230;28;20314;-45
2024/04/05 04:38:05;;;;;;;0.10;0.10;;;20.10;50.30;;;;;;5066511;28;20225;-45
2024/04/05 04:40:37;;;;;;;0.10;0.10;;;20.10;50.20;;;;;;5066792;28;20203;-47
2024/04/05 04:43:07;;;;;;;0.10;0.10;;;20.00;50.20;;;;;;5066966;28;20203;-53
2024/04/05 04:45:37;;;;;;;0.10;0.10;;;20.00;50.20;;;;;;5067905;28;20295;-46
2024/04/05 04:48:07;;;;;;;0.10;0.10;;;20.00;50.10;;;;;;5078615;23;20226;-45
2024/04/05 04:50:37;;;;;;;0.00;0.00;;;20.00;50.10;;;;;;5067408;28;20503;-45
2024/04/05 04:53:07;;;;;;;0.00;0.00;;;20.00;50.10;;;;;;5066768;28;20199;-45
2024/04/05 04:55:41;;;;;;;0.00;0.00;;;19.90;50.10;;;;;;5066688;28;20697;-44
2024/04/05 04:58:11;;;;;;;0.10;0.10;;;19.90;50.20;;;;;;5066465;28;20230;-44
2024/04/05 05:00:41;;;;;;;0.10;0.10;;;19.80;50.20;;;;;;5067718;28;20221;-46
2024/04/05 05:03:11;;;;;;;0.08;0.08;;;19.80;50.30;;;;;;5077191;28;20221;-45
2024/04/05 05:05:42;;;;;;;0.10;0.10;;;19.80;50.30;;;;;;5086256;28;20194;-46
2024/04/05 05:08:12;;;;;;;0.00;0.00;;;19.80;50.40;;;;;;5066990;28;20712;-45
2024/04/05 05:10:45;;;;;;;0.10;0.10;;;19.70;50.50;;;;;;5067773;28;20575;-45
2024/04/05 05:13:14;;;;;;;0.10;0.10;;;19.70;50.50;;;;;;5065988;28;20191;-50
2024/04/05 05:15:45;;;;;;;0.00;0.00;;;19.70;50.70;;;;;;5066654;28;20620;-48
2024/04/05 05:18:14;;;;;;;0.10;0.10;;;19.60;50.80;;;;;;5071316;28;20233;-47
2024/04/05 05:20:49;;;;;;;0.00;0.00;;;19.60;51.00;;;;;;5073778;28;20207;-49
2024/04/05 05:23:18;;;;;;;0.08;0.08;;;19.60;51.20;;;;;;5067364;28;20234;-47
2024/04/05 05:25:51;;;;;;;0.10;0.10;;;19.60;51.30;;;;;;5066855;28;20259;-49
2024/04/05 05:28:20;;;;;;;0.10;0.10;;;19.50;51.40;;;;;;5067212;28;20229;-45
2024/04/05 05:30:51;;;;;;;0.10;0.10;;;19.50;51.50;;;;;;5067133;28;20320;-49
2024/04/05 05:33:20;;;;;;;0.00;0.00;;;19.50;51.60;;;;;;5080266;28;20202;-45
2024/04/05 05:35:50;;;;;;;0.05;0.05;;;19.40;51.60;;;;;;5070898;28;20231;-45
2024/04/05 05:38:19;;;;;;;0.10;0.10;;;19.40;51.70;;;;;;5070381;28;20260;-46
2024/04/05 05:40:52;;;;;;;0.10;0.10;;;19.40;51.80;;;;;;5074534;28;20600;-44
2024/04/05 05:43:21;;;;;;;0.10;0.10;;;19.40;51.80;;;;;;5070688;28;20206;-48
2024/04/05 05:45:52;;;;;;;0.10;0.10;;;19.40;51.90;;;;;;5070470;28;20210;-47
2024/04/05 05:48:21;;;;;;;0.10;0.10;;;19.30;51.80;;;;;;5069836;28;20228;-44
2024/04/05 05:50:51;;;;;;;0.10;0.10;;;19.30;51.90;;;;;;5070331;28;20199;-44
2024/04/05 05:53:21;;;;;;;0.10;0.10;;;19.30;52.00;;;;;;5070506;28;20210;-49
2024/04/05 05:55:55;;;;;;;0.00;0.00;;;19.30;52.10;;;;;;5069353;28;20594;-49
2024/04/05 05:58:24;;;;;;;0.10;0.10;;;19.20;52.20;;;;;;5050117;28;20214;-46
2024/04/05 06:00:55;;;;;;;0.10;0.10;;;19.20;52.30;;;;;;5064214;28;20234;-46
2024/04/05 06:03:25;;;;;;;0.10;0.10;;;19.20;52.30;;;;;;5082892;28;20221;-49
2024/04/05 06:05:56;;;;;;;0.10;0.10;;;19.10;52.40;;;;;;5090384;28;20202;-47
2024/04/05 06:08:26;;;;;;;0.00;0.00;;;19.10;52.50;;;;;;5089971;28;20218;-45
2024/04/05 06:11:01;;;;;;;0.00;0.00;;;19.10;52.50;;;;;;5090359;28;20238;-48
2024/04/05 06:13:31;;;;;;;0.10;0.10;;;19.10;52.60;;;;;;5084726;28;20199;-48
2024/04/05 06:16:02;;;;;;;0.10;0.10;;;19.10;52.70;;;;;;5070027;28;20230;-47
2024/04/05 06:18:31;;;;;;;0.10;0.10;;;19.10;52.70;;;;;;5070436;28;20219;-49
2024/04/05 06:21:02;;;;;;;0.10;0.10;;;19.10;52.90;;;;;;5069196;28;20285;-48
2024/04/05 06:23:31;;;;;;;0.00;0.00;;;19.10;52.90;;;;;;5050627;28;20223;-47
2024/04/05 06:26:04;;;;;;;0.10;0.10;;;19.10;53.50;;;;;;5049773;28;20210;-44
2024/04/05 06:28:35;;;;;;;0.10;0.10;;;19.10;53.00;;;;;;5068137;28;20225;-45
2024/04/05 06:31:05;;;;;;;0.00;0.00;;;19.10;53.10;;;;;;5069234;28;20194;-46
2024/04/05 06:33:35;;;;;;;0.00;0.00;;;19.10;53.20;;;;;;5083236;28;20204;-47
2024/04/05 06:36:07;;;;;;;0.10;0.10;;;19.10;53.40;;;;;;5089521;28;20229;-45
2024/04/05 06:38:36;;;;;;;0.10;0.10;;;19.10;53.60;;;;;;5089528;28;20250;-44
2024/04/05 06:41:09;;;;;;;0.10;0.10;;;19.00;53.70;;;;;;5071696;28;20702;-45
2024/04/05 06:43:38;;;;;;;0.03;0.03;;;19.00;53.80;;;;;;5069127;28;20212;-44
2024/04/05 06:46:10;;;;;;;0.05;0.05;;;19.00;53.80;;;;;;5068315;28;20206;-45
2024/04/05 06:48:40;;;;;;;0.10;0.10;;;19.00;54.00;;;;;;5069002;28;20280;-49
2024/04/05 06:51:16;;;;;;;0.10;0.10;;;18.90;54.00;;;;;;5071600;28;20203;-46
2024/04/05 06:53:45;;;;;;;0.00;0.00;;;18.90;54.20;;;;;;5093100;28;20229;-43
2024/04/05 06:56:18;;;;;;;0.10;0.10;;;18.80;54.20;;;;;;5093089;28;20222;-44
2024/04/05 06:58:47;;;;;;;0.10;0.10;;;18.80;54.30;;;;;;5092402;28;20210;-45
2024/04/05 07:01:18;;;;;;;0.00;0.00;;;18.80;54.30;;;;;;5076936;28;20195;-45
2024/04/05 07:03:47;;;;;;;0.00;0.00;;;18.70;54.40;;;;;;5079695;28;20202;-44
2024/04/05 07:06:18;;;;;;;0.10;0.10;;;18.70;54.50;;;;;;5072348;28;20201;-45
2024/04/05 07:08:48;;;;;;;0.00;0.00;;;18.60;54.60;;;;;;5072151;28;20690;-43
2024/04/05 07:11:22;;;;;;;0.10;0.10;;;18.60;54.70;;;;;;5072316;28;20709;-46
2024/04/05 07:13:52;;;;;;;0.10;0.10;;;18.50;54.70;;;;;;5071309;28;20251;-45
2024/04/05 07:16:21;;;;;;;0.00;0.00;;;18.50;54.80;;;;;;5071783;28;20223;-44
2024/04/05 07:18:53;;;;;;;0.00;0.00;;;18.50;54.80;;;;;;5072594;28;20647;-44
2024/04/05 07:21:22;;;;;;;0.10;0.10;;;18.50;54.80;;;;;;5071353;28;20703;-47
2024/04/05 07:23:55;;;;;;;0.00;0.00;;;18.40;54.60;;;;;;5072299;28;20191;-44
2024/04/05 07:26:26;;;;;;;0.10;0.10;;;18.40;54.50;;;;;;5072096;28;20244;-44
2024/04/05 07:28:56;;;;;;;0.10;0.10;;;18.50;54.50;;;;;;5071417;28;20211;-48
2024/04/05 07:31:25;;;;;;;0.10;0.10;;;18.50;54.40;;;;;;5072388;28;20195;-42
2024/04/05 07:33:56;;;;;;;0.00;0.00;;;18.50;54.40;;;;;;5089018;28;20209;-44
2024/04/05 07:36:25;;;;;;;0.10;0.10;;;18.50;54.30;;;;;;5092192;28;20218;-44
2024/04/05 07:38:56;;;;;;;0.10;0.10;;;18.50;54.20;;;;;;5091986;28;20214;-46
2024/04/05 07:41:27;;;;;;;0.10;0.10;;;18.60;54.30;;;;;;5092162;28;20205;-42
2024/04/05 07:43:58;;;;;;;0.00;0.00;;;18.60;54.20;;;;;;5091227;28;20688;-46
2024/04/05 07:46:27;;;;;;;0.10;0.10;;;18.60;54.10;;;;;;5091892;28;20190;-44
2024/04/05 07:48:58;;;;;;;0.10;0.10;;;18.60;54.10;;;;;;5091450;28;20301;-43
2024/04/05 07:51:27;;;;;;;0.05;0.05;;;18.60;54.10;;;;;;5092407;28;20281;-44
2024/04/05 07:53:57;;;;;;;0.10;0.10;;;18.60;54.00;;;;;;5091016;28;20209;-44
2024/04/05 07:56:28;;;;;;;0.10;0.10;;;18.60;53.90;;;;;;5090726;28;20594;-44
2024/04/05 07:58:59;;;;;;;0.08;0.08;;;18.70;53.90;;;;;;5071273;28;20218;-43
2024/04/05 08:01:28;;;;;;;0.10;0.10;;;18.70;53.80;;;;;;5071508;28;20650;-43
2024/04/05 08:04:00;;;;;;;0.05;0.05;;;18.70;53.80;;;;;;5088956;28;20198;-43
2024/04/05 08:06:29;;;;;;;0.00;0.00;;;18.70;53.70;;;;;;5091917;28;20202;-49
2024/04/05 08:09:00;;;;;;;0.03;0.03;;;18.70;53.60;;;;;;5091546;28;20555;-44
2024/04/05 08:11:31;;;;;;;0.00;0.00;;;18.70;53.50;;;;;;5091392;28;20539;-44
2024/04/05 08:14:02;;;;;;;0.00;0.00;;;18.70;53.50;;;;;;5091058;28;20194;-44
2024/04/05 08:16:31;;;;;;;0.10;0.10;;;18.70;53.40;;;;;;5091789;28;20585;-43
2024/04/05 08:19:01;;;;;;;0.00;0.00;;;18.80;53.40;;;;;;5091698;28;20738;-44
2024/04/05 08:21:31;;;;;;;0.10;0.10;;;18.70;53.40;;;;;;5091481;28;20190;-44
2024/04/05 08:24:01;;;;;;;0.10;0.10;;;18.80;53.30;;;;;;5091479;28;20200;-43
2024/04/05 08:26:33;;;;;;;0.10;0.10;;;18.80;53.40;;;;;;5081754;28;20194;-46
2024/04/05 08:29:04;;;;;;;0.10;0.10;;;18.80;53.40;;;;;;5070635;28;20219;-44
2024/04/05 08:31:33;;;;;;;0.10;0.10;;;18.80;53.30;;;;;;5071387;28;20205;-45
2024/04/05 08:34:04;;;;;;;0.00;0.00;;;18.80;53.30;;;;;;5089287;28;20210;-44
2024/04/05 08:36:33;;;;;;;0.03;0.03;;;18.80;53.30;;;;;;5091330;28;20245;-45
2024/04/05 08:39:04;;;;;;;0.10;0.10;;;18.80;53.30;;;;;;5081038;28;20214;-45
2024/04/05 08:41:39;;;;;;;0.10;0.10;;;18.80;53.20;;;;;;5071037;28;20191;-44
2024/04/05 08:44:11;;;;;;;0.10;0.10;;;18.80;53.20;;;;;;5070294;28;20198;-44
2024/04/05 08:46:40;;;;;;;0.10;0.10;;;18.80;53.20;;;;;;5070890;28;20285;-46
2024/04/05 08:49:12;;;;;;;0.00;0.00;;;18.80;53.20;;;;;;5070993;28;20224;-46
2024/04/05 08:51:41;;;;;;;0.10;0.10;;;18.80;53.10;;;;;;5071067;28;20191;-45
2024/04/05 08:54:12;;;;;;;0.00;0.00;;;18.80;53.10;;;;;;5069412;28;20195;-48
2024/04/05 08:56:48;;;;;;;0.10;0.10;;;18.80;53.20;;;;;;5071143;28;20226;-44
2024/04/05 08:59:20;;;;;;;0.05;0.05;;;18.80;53.10;;;;;;5069735;28;20425;-44
2024/04/05 09:01:51;;;;;;;0.00;0.00;;;18.80;53.10;;;;;;5070727;28;20268;-45
2024/04/05 09:04:21;;;;;;;0.10;0.10;;;18.80;53.10;;;;;;5090731;28;20252;-45
2024/04/05 09:06:50;;;;;;;0.10;0.10;;;18.80;53.10;;;;;;5091503;28;20205;-44
2024/04/05 09:09:32;;;;;;;0.10;0.10;;;18.80;53.10;;;;;;5094389;28;20319;-51
2024/04/05 09:12:07;;;;;;;0.00;0.00;;;18.80;53.00;;;;;;5094802;28;20273;-50
2024/04/05 09:14:39;;;;;;;0.03;0.03;;;18.80;53.00;;;;;;5094065;28;20194;-49
2024/04/05 09:17:15;;;;;;;0.10;0.10;;;18.90;53.00;;;;;;5094503;28;20221;-44
2024/04/05 09:19:46;;;;;;;0.00;0.00;;;18.80;53.00;;;;;;5094820;28;20278;-46
2024/04/05 09:22:21;;;;;;;0.10;0.10;;;18.80;52.90;;;;;;5094893;28;20432;-44
2024/04/05 09:25:00;;;;;;;0.10;0.10;;;18.80;52.90;;;;;;5082066;28;20209;-47
2024/04/05 09:27:32;;;;;;;0.10;0.10;;;18.80;52.90;;;;;;5063327;28;20261;-47
2024/04/05 09:30:06;;;;;;;0.00;0.00;;;18.80;53.00;;;;;;5069621;28;20566;-43
2024/04/05 09:32:38;;;;;;;0.10;0.10;;;18.80;53.00;;;;;;5076139;28;20684;-46
2024/04/05 09:35:11;;;;;;;0.05;0.05;;;18.90;53.00;;;;;;5090294;28;20202;-46
2024/04/05 09:37:40;;;;;;;0.10;0.10;;;18.90;52.90;;;;;;5082427;28;20241;-45
2024/04/05 09:40:11;;;;;;;0.10;0.10;;;18.80;52.90;;;;;;5069956;28;20202;-44
2024/04/05 09:42:44;;;;;;;0.10;0.10;;;18.90;52.90;;;;;;5069867;28;20662;-46
2024/04/05 09:45:15;;;;;;;0.20;0.20;;;18.80;52.90;;;;;;5070747;28;20199;-48
2024/04/05 09:47:46;;;;;;;0.10;0.10;;;18.90;52.90;;;;;;5069948;28;20306;-45
2024/04/05 09:50:17;;;;;;;0.10;0.10;;;18.80;52.90;;;;;;5070104;28;20234;-43
2024/04/05 09:52:47;;;;;;;0.00;0.00;;;18.80;52.90;;;;;;5050580;28;20218;-44
2024/04/05 09:55:19;;;;;;;0.10;0.10;;;18.90;52.90;;;;;;5050221;28;20724;-44
2024/04/05 09:57:50;;;;;;;0.05;0.05;;;18.90;52.90;;;;;;5049881;28;20223;-43
2024/04/05 10:00:24;;;;;;;0.10;0.10;;;18.80;52.80;;;;;;5049422;28;20204;-45
2024/04/05 10:02:56;;;;;;;0.00;0.00;;;18.90;52.80;;;;;;5065471;28;20696;-45
2024/04/05 10:05:30;;;;;;;0.00;0.00;;;18.80;52.80;;;;;;5075988;28;20272;-44
2024/04/05 10:08:10;;;;;;;0.10;0.10;;;18.80;52.70;;;;;;5069326;28;20214;-44
2024/04/05 10:10:42;;;;;;;0.10;0.10;;;18.90;52.80;;;;;;5070716;28;20725;-43
2024/04/05 10:13:17;;;;;;;0.10;0.10;;;18.80;52.80;;;;;;5069628;28;20206;-44
2024/04/05 10:15:58;;;;;;;0.10;0.10;;;18.80;52.80;;;;;;5069540;28;20275;-43
2024/04/05 10:18:29;;;;;;;0.10;0.10;;;18.80;53.40;;;;;;5069184;28;20222;-43
2024/04/05 10:21:03;;;;;;;0.10;0.10;;;18.90;53.80;;;;;;5069482;28;20204;-45
2024/04/05 10:23:33;;;;;;;0.00;0.00;;;18.90;53.60;;;;;;5070525;28;20206;-44
2024/04/05 10:26:03;;;;;;;0.10;0.10;;;18.90;53.50;;;;;;5069373;28;20209;-44
2024/04/05 10:28:34;;;;;;;0.10;0.10;;;19.00;53.50;;;;;;5069884;28;20211;-45
2024/04/05 10:31:05;;;;;;;0.10;0.10;;;18.90;53.40;;;;;;5069333;28;20203;-44
2024/04/05 10:33:35;;;;;;;0.10;0.10;;;18.90;53.40;;;;;;5084085;28;20202;-44
2024/04/05 10:36:06;;;;;;;0.10;0.10;;;19.00;53.50;;;;;;5088988;28;20585;-45
2024/04/05 10:38:36;;;;;;;0.10;0.10;;;19.00;53.50;;;;;;5080238;28;20748;-48
2024/04/05 10:44:26;;;;;;;0.10;0.10;;;18.90;53.30;;;;;;5061541;28;20229;-43
2024/04/05 10:46:56;;;;;;;0.10;0.10;;;18.90;53.30;;;;;;5069364;28;20194;-43
2024/04/05 10:49:26;;;;;;;0.00;0.00;;;18.90;53.30;;;;;;5068954;28;20267;-44
2024/04/05 10:52:00;;;;;;;0.10;0.10;;;18.90;53.30;;;;;;5069640;28;20194;-43
2024/04/05 10:54:32;;;;;;;0.10;0.10;;;18.90;53.40;;;;;;5068824;28;20201;-44
2024/04/05 10:57:05;;;;;;;0.10;0.10;;;18.90;53.30;;;;;;5068393;28;20222;-46
2024/04/05 10:59:38;;;;;;;0.10;0.10;;;18.90;53.30;;;;;;5049125;28;20199;-43
2024/04/05 11:02:07;;;;;;;0.10;0.10;;;18.90;53.40;;;;;;5050215;28;20203;-44
2024/04/05 11:04:39;;;;;;;0.10;0.10;;;18.90;53.40;;;;;;5066951;28;20671;-44
2024/04/05 11:07:08;;;;;;;0.10;0.10;;;19.00;53.50;;;;;;5068312;28;20190;-45
2024/04/05 11:09:42;;;;;;;0.10;0.10;;;18.90;53.40;;;;;;5069096;28;20210;-43
2024/04/05 11:12:14;;;;;;;0.10;0.10;;;18.90;53.40;;;;;;5068973;28;20211;-44
2024/04/05 11:14:46;;;;;;;0.05;0.05;;;18.90;53.50;;;;;;5068328;28;20553;-44
2024/04/05 11:17:18;;;;;;;0.10;0.10;;;18.90;53.60;;;;;;5068920;28;20241;-42
2024/04/05 11:19:49;;;;;;;0.10;0.10;;;18.90;53.70;;;;;;5068097;28;20202;-44
2024/04/05 11:22:19;;;;;;;0.00;0.00;;;18.90;53.70;;;;;;5068011;28;20685;-46
2024/04/05 11:24:51;;;;;;;0.10;0.10;;;18.90;53.70;;;;;;5068455;28;20199;-47
2024/04/05 11:27:22;;;;;;;0.10;0.10;;;18.90;53.60;;;;;;5067370;28;20301;-47
2024/04/05 11:29:55;;;;;;;0.10;0.10;;;18.90;53.60;;;;;;5067875;28;20199;-45
2024/04/05 11:32:29;;;;;;;0.10;0.10;;;18.90;53.60;;;;;;5071696;28;20216;-44
2024/04/05 11:34:59;;;;;;;0.10;0.10;;;18.90;53.50;;;;;;5088782;28;20198;-46
2024/04/05 11:37:29;;;;;;;0.10;0.10;;;18.90;53.50;;;;;;5070785;28;20864;-43
2024/04/05 11:39:59;;;;;;;0.10;0.10;;;18.90;53.50;;;;;;5068438;28;20206;-42
2024/04/05 11:42:29;;;;;;;0.10;0.10;;;18.90;53.50;;;;;;5068537;28;20203;-43
2024/04/05 11:45:01;;;;;;;0.00;0.00;;;18.90;53.50;;;;;;5067706;28;20199;-44
2024/04/05 11:47:30;;;;;;;0.10;0.10;;;18.90;53.40;;;;;;5068362;28;20233;-44
2024/04/05 11:50:01;;;;;;;0.00;0.00;;;18.90;53.40;;;;;;5067851;28;20566;-45
2024/04/05 11:52:32;;;;;;;0.10;0.10;;;18.90;53.30;;;;;;5068136;28;20195;-46
2024/04/05 11:55:03;;;;;;;0.00;0.00;;;18.90;53.30;;;;;;5070922;28;20195;-44
2024/04/05 11:57:32;;;;;;;0.10;0.10;;;18.90;53.30;;;;;;5071277;28;20231;-44
2024/04/05 12:00:05;;;;;;;0.10;0.10;;;18.90;53.30;;;;;;5071120;28;20658;-44
2024/04/05 12:02:34;;;;;;;0.10;0.10;;;18.90;53.30;;;;;;5077301;28;20198;-45
2024/04/05 12:05:05;;;;;;;0.00;0.00;;;18.80;53.20;;;;;;5091943;28;20255;-44
2024/04/05 12:07:35;;;;;;;0.00;0.00;;;18.80;53.20;;;;;;5064696;28;20214;-43
2024/04/05 12:10:06;;;;;;;0.10;0.10;;;18.80;53.20;;;;;;5060078;28;20735;-44
2024/04/05 12:12:36;;;;;;;0.10;0.10;;;18.80;53.20;;;;;;5061134;28;20248;-44
2024/04/05 12:15:10;;;;;;;0.00;0.00;;;18.80;53.20;;;;;;5062138;28;20192;-44
2024/04/05 12:17:40;;;;;;;0.10;0.10;;;18.80;53.10;;;;;;5060999;28;20252;-43
2024/04/05 12:20:11;;;;;;;0.10;0.10;;;18.80;53.10;;;;;;5060986;28;20213;-45
2024/04/05 12:22:41;;;;;;;0.10;0.10;;;18.80;53.10;;;;;;5061075;28;20286;-44
2024/04/05 12:25:11;;;;;;;0.10;0.10;;;18.80;53.70;;;;;;5062193;28;20187;-42
2024/04/05 12:27:41;;;;;;;0.00;0.00;;;18.80;53.10;;;;;;5053737;28;20691;-44
2024/04/05 12:30:14;;;;;;;0.10;0.10;;;18.80;53.00;;;;;;5051056;28;20651;-42
2024/04/05 12:32:43;;;;;;;0.00;0.00;;;18.80;53.10;;;;;;5064879;28;20206;-44
2024/04/05 12:35:13;;;;;;;0.00;0.00;;;18.80;53.00;;;;;;5091289;28;20201;-44
2024/04/05 12:37:43;;;;;;;0.10;0.10;;;18.80;53.00;;;;;;5077748;28;20614;-44
2024/04/05 12:40:17;;;;;;;0.10;0.10;;;18.80;53.00;;;;;;5070769;28;20732;-43
2024/04/05 12:42:46;;;;;;;0.10;0.10;;;18.80;53.00;;;;;;5073050;28;20198;-43
2024/04/05 12:45:19;;;;;;;0.00;0.00;;;18.80;53.00;;;;;;5075714;28;20226;-43
2024/04/05 12:47:48;;;;;;;0.10;0.10;;;18.80;53.00;;;;;;5074790;28;20241;-43
2024/04/05 12:50:19;;;;;;;0.10;0.10;;;18.80;52.90;;;;;;5075298;28;20202;-44
2024/04/05 12:52:48;;;;;;;0.00;0.00;;;18.80;52.90;;;;;;5075654;28;20673;-44
2024/04/05 12:55:19;;;;;;;0.10;0.10;;;18.80;52.90;;;;;;5075301;28;20201;-44
2024/04/05 12:57:48;;;;;;;0.10;0.10;;;18.80;52.90;;;;;;5074664;28;20229;-44
2024/04/05 13:00:21;;;;;;;0.08;0.08;;;18.80;52.90;;;;;;5074659;28;20235;-43
2024/04/05 13:02:52;;;;;;;0.10;0.10;;;18.80;52.90;;;;;;5082672;28;20198;-43
2024/04/05 13:05:21;;;;;;;0.10;0.10;;;18.80;52.90;;;;;;5095149;28;20194;-43
2024/04/05 13:07:51;;;;;;;0.00;0.00;;;18.70;52.80;;;;;;5095315;28;20226;-48
2024/04/05 13:10:21;;;;;;;0.10;0.10;;;18.70;52.80;;;;;;5095074;28;20190;-45